Latest Weather Observations for Walpeup

IDV60801

Issued at 8:02 pm EST Saturday 27 August 2016 (issued every 30 minutes, with the page automatically refreshed every 10 minutes)

About weather observations | Map of weather stations | Latest weather observations for VIC | Other Formats
Station Details ID: 076064 Name: WALPEUP RESEARCH Lat: -35.12 Lon: 142.00 Height: 105.0 m
Data from the previous 72 hours. | See also: Recent months at Walpeup
Date/Time
EST
Temp
°C
App
Temp
°C
Dew
Point
°C
Rel
Hum
%
Delta-T
°C
Wind Press
QNH
hPa
Press
MSL
hPa
Rain since
9am
mm
Dir  Spd
km/h
Gust
km/h
Spd
kts
Gust
kts
27/08:00pm 12.5 9.0 1.5 47 4.7 NNE 9 11 5 6 - - 0.0
27/07:30pm 13.1 9.3 1.5 45 5.0 N 11 13 6 7 - - 0.0
27/07:00pm 13.3 9.5 1.9 46 5.0 N 11 13 6 7 - - 0.0
27/06:30pm 13.4 10.0 1.7 45 5.1 N 9 13 5 7 - - 0.0
27/06:00pm 14.2 10.7 1.2 41 5.6 N 9 11 5 6 - - 0.0
27/05:30pm 14.9 11.0 1.4 40 5.9 NNW 11 17 6 9 - - 0.0
27/05:00pm 15.8 11.1 0.8 36 6.5 NNW 15 20 8 11 - - 0.0
27/04:30pm 16.7 11.2 0.4 33 7.1 NNW 19 26 10 14 - - 0.0
27/04:00pm 17.7 13.0 1.2 33 7.4 NNW 15 33 8 18 - - 0.0
27/03:30pm 16.8 11.3 0.9 34 7.0 WNW 19 26 10 14 - - 0.0
27/03:00pm 17.3 12.4 1.7 35 7.0 NW 17 26 9 14 - - 0.0
27/02:30pm 17.3 12.7 1.7 35 7.0 NNW 15 24 8 13 - - 0.0
27/02:00pm 17.0 11.7 1.8 36 6.8 NW 19 28 10 15 - - 0.0
27/01:30pm 16.0 10.7 2.1 39 6.2 WNW 19 26 10 14 - - 0.0
27/01:00pm 16.4 11.0 2.4 39 6.3 NW 20 32 11 17 - - 0.0
27/12:30pm 15.1 10.3 2.6 43 5.6 NW 17 22 9 12 - - 0.0
27/12:00pm 15.0 9.5 1.9 41 5.8 NNW 20 33 11 18 - - 0.0
27/11:30am 14.6 8.8 2.5 44 5.4 NNW 22 32 12 17 - - 0.0
27/11:00am 14.1 8.8 3.0 47 5.0 NNW 20 26 11 14 - - 0.0
27/10:30am 13.1 8.1 3.7 53 4.3 NNW 19 26 10 14 - - 0.0
27/10:00am 11.7 7.7 4.7 62 3.2 N 15 22 8 12 - - 0.0
27/09:30am 10.2 6.1 4.6 68 2.5 NNW 15 20 8 11 - - 0.0
27/09:00am 8.1 4.5 5.0 81 1.4 N 13 17 7 9 - - 0.0
27/08:30am 5.5 1.7 4.0 90 0.6 N 13 15 7 8 - - 0.0
27/08:00am 6.4 3.7 5.4 93 0.4 N 9 11 5 6 - - 0.0
27/07:30am 4.5 2.0 3.8 95 0.3 N 6 6 3 3 - - 0.0
27/07:00am 3.4 0.7 2.4 93 0.4 N 6 6 3 3 - - 0.0
27/06:30am 4.3 2.1 3.4 94 0.4 NNW 4 4 2 2 - - 0.0
27/06:00am 4.3 2.1 3.3 93 0.4 NNW 4 6 2 3 - - 0.0
27/05:30am 4.1 1.9 3.1 93 0.4 NNW 4 6 2 3 - - 0.0
27/05:00am 4.1 1.8 2.9 92 0.5 NNW 4 6 2 3 - - 0.0
27/04:30am 4.2 1.9 2.9 91 0.5 NW 4 6 2 3 - - 0.0
27/04:00am 4.5 2.2 3.0 90 0.6 NW 4 6 2 3 - - 0.0
27/03:30am 4.8 2.6 3.1 89 0.7 NW 4 6 2 3 - - 0.0
27/03:00am 3.8 2.1 1.7 86 0.8 CALM 0 4 0 2 - - 0.0
27/02:30am 4.8 3.3 3.1 89 0.7 CALM 0 0 0 0 - - 0.0
27/02:00am 5.0 3.1 3.0 87 0.8 SSW 2 4 1 2 - - 0.0
27/01:30am 5.4 3.9 3.1 85 1.0 CALM 0 6 0 3 - - 0.0
27/01:00am 5.7 4.2 2.9 82 1.2 CALM 0 2 0 1 - - 0.0
27/12:30am 6.3 3.7 3.1 80 1.3 WNW 6 7 3 4 - - 0.0
27/12:00am 6.8 4.1 2.5 74 1.8 NW 6 7 3 4 - - 0.0
 
Date/Time
EST
Temp
°C
App
Temp
°C
Dew
Point
°C
Rel
Hum
%
Delta-T
°C
Wind Press
QNH
hPa
Press
MSL
hPa
Rain since
9am
mm
Dir  Spd
km/h
Gust
km/h
Spd
kts
Gust
kts
26/11:30pm 8.6 5.7 2.6 66 2.5 NW 7 9 4 5 - - 0.0
26/11:00pm 8.6 7.0 2.4 65 2.6 CALM 0 2 0 1 - - 0.0
26/10:30pm 8.6 6.6 2.4 65 2.6 W 2 6 1 3 - - 0.0
26/10:00pm 9.2 6.3 2.5 63 2.8 NW 7 7 4 4 - - 0.0
26/09:30pm 9.5 6.6 2.6 62 2.9 NW 7 9 4 5 - - 0.0
26/09:00pm 9.5 6.6 2.8 63 2.9 NW 7 7 4 4 - - 0.0
26/08:30pm 9.0 6.1 2.6 64 2.7 NNW 7 9 4 5 - - 0.0
26/08:00pm 9.5 6.2 2.6 62 2.9 NW 9 11 5 6 - - 0.0
26/07:30pm 9.8 6.5 2.6 61 3.1 NW 9 11 5 6 - - 0.0
26/07:00pm 9.9 7.1 3.2 63 2.9 NW 7 9 4 5 - - 0.0
26/06:30pm 9.4 6.6 3.2 65 2.7 NW 7 7 4 4 - - 0.0
26/06:00pm 10.5 7.6 2.8 59 3.3 NW 7 9 4 5 - - 0.0
26/05:30pm 12.4 8.8 2.8 52 4.2 NW 11 13 6 7 - - 0.0
26/05:00pm 13.3 9.6 2.2 47 4.9 WNW 11 15 6 8 - - 0.0
26/04:30pm 13.8 9.3 2.4 46 5.0 WNW 15 19 8 10 - - 0.0
26/04:00pm 13.3 9.6 2.2 47 4.9 WNW 11 17 6 9 - - 0.0
26/03:30pm 13.7 9.1 1.4 43 5.3 WNW 15 24 8 13 - - 0.0
26/03:00pm 14.3 10.1 1.6 42 5.5 W 13 24 7 13 - - 0.0
26/02:30pm 14.5 10.8 2.1 43 5.5 W 11 19 6 10 - - 0.0
26/02:00pm 12.9 8.6 1.3 45 5.0 W 13 20 7 11 - - 0.0
26/01:30pm 14.1 10.0 2.4 45 5.2 WSW 13 22 7 12 - - 0.0
26/01:00pm 13.0 9.3 2.3 48 4.7 SW 11 20 6 11 - - 0.0
26/12:30pm 13.1 9.7 1.8 46 4.9 SW 9 19 5 10 - - 0.0
26/12:00pm 12.5 9.0 1.2 46 4.8 SSW 9 17 5 9 - - 0.0
26/11:30am 11.4 7.6 1.6 51 4.2 WSW 11 20 6 11 - - 0.0
26/11:00am 11.9 8.2 2.1 51 4.2 SSW 11 17 6 9 - - 0.0
26/10:30am 11.0 7.6 3.8 61 3.2 WSW 11 17 6 9 - - 0.0
26/10:00am 9.2 6.8 5.4 77 1.7 WSW 7 9 4 5 - - 0.0
26/09:30am 6.9 5.3 6.3 96 0.3 W 4 7 2 4 - - 0.0
26/09:00am 5.6 3.8 5.3 98 0.1 W 4 6 2 3 - - 1.0
26/08:30am 4.5 2.1 4.2 98 0.1 W 6 9 3 5 - - 1.0
26/08:00am 3.3 1.8 2.9 97 0.2 CALM 0 0 0 0 - - 1.0
26/07:30am 2.8 1.2 2.4 97 0.2 CALM 0 0 0 0 - - 1.0
26/07:00am 3.5 2.0 3.1 97 0.2 CALM 0 0 0 0 - - 1.0
26/06:30am 3.8 1.3 3.5 98 0.1 SSW 6 6 3 3 - - 1.0
26/06:00am 2.8 -0.1 2.4 97 0.2 S 7 9 4 5 - - 1.0
26/05:30am 1.6 -0.6 0.9 95 0.3 WSW 2 6 1 3 - - 1.0
26/05:00am 1.0 -1.3 0.1 94 0.3 W 2 4 1 2 - - 1.0
26/04:30am 1.2 -1.5 0.2 93 0.4 W 4 4 2 2 - - 1.0
26/04:00am 2.5 0.0 1.6 94 0.3 SW 4 6 2 3 - - 1.0
26/03:30am 2.5 -0.4 1.6 94 0.3 SSW 6 6 3 3 - - 1.0
26/03:00am 2.4 -0.5 1.4 93 0.4 SW 6 6 3 3 - - 1.0
26/02:30am 2.6 -0.3 1.4 92 0.5 SSW 6 7 3 4 - - 1.0
26/02:00am 3.1 0.7 1.9 92 0.5 WSW 4 6 2 3 - - 1.0
26/01:30am 3.2 0.4 1.9 91 0.5 SW 6 7 3 4 - - 1.0
26/01:00am 3.7 0.9 2.2 90 0.6 SW 6 6 3 3 - - 1.0
26/12:30am 4.0 1.6 2.2 88 0.7 WSW 4 6 2 3 - - 0.8
26/12:00am 4.3 1.5 2.2 86 0.8 WSW 6 6 3 3 - - 0.8
 
Date/Time
EST
Temp
°C
App
Temp
°C
Dew
Point
°C
Rel
Hum
%
Delta-T
°C
Wind Press
QNH
hPa
Press
MSL
hPa
Rain since
9am
mm
Dir  Spd
km/h
Gust
km/h
Spd
kts
Gust
kts
25/11:30pm 4.7 1.9 2.2 84 1.0 SW 6 9 3 5 - - 0.8
25/11:00pm 4.9 2.1 2.1 82 1.1 WSW 6 7 3 4 - - 0.8
25/10:30pm 5.2 2.4 2.2 81 1.2 SW 6 7 3 4 - - 0.8
25/10:00pm 5.1 2.1 1.8 79 1.3 SSW 7 9 4 5 - - 0.8
25/09:30pm 5.3 2.3 2.0 79 1.3 SSW 7 9 4 5 - - 0.8
25/09:00pm 5.5 2.6 1.4 75 1.6 SSW 6 9 3 5 - - 0.8
25/08:30pm 6.1 3.2 1.2 71 2.0 SSW 6 7 3 4 - - 0.8
25/08:00pm 7.3 3.8 1.4 66 2.4 SW 9 15 5 8 - - 0.8
25/07:30pm 7.9 4.8 1.5 64 2.6 SSW 7 9 4 5 - - 0.8
25/07:00pm 9.1 6.7 2.2 62 2.9 SW 4 4 2 2 - - 0.8
25/06:30pm 10.0 7.9 4.0 66 2.7 SW 4 7 2 4 - - 0.8
25/06:00pm 10.4 7.4 3.9 64 2.9 SSW 9 11 5 6 - - 0.8
25/05:30pm 11.4 8.2 3.2 57 3.6 SW 9 15 5 8 - - 0.8
25/05:00pm 12.5 8.1 2.9 52 4.2 SSW 15 19 8 10 - - 0.8
25/04:30pm 13.0 8.4 1.4 45 5.0 SW 15 20 8 11 - - 0.8
25/04:00pm 12.6 9.5 5.5 62 3.3 SW 11 17 6 9 - - 0.8
25/03:30pm 11.1 7.8 4.6 64 2.9 SW 11 17 6 9 - - 0.8
25/03:00pm 11.9 9.6 7.4 74 2.2 S 9 24 5 13 - - 0.8
25/02:30pm 12.2 7.4 4.4 59 3.6 SW 19 43 10 23 - - 0.0
25/02:00pm 14.1 9.7 4.9 54 4.3 WSW 17 26 9 14 - - 0.0
25/01:30pm 15.2 11.0 5.7 53 4.6 WSW 17 22 9 12 - - 0.0
25/01:00pm 14.4 10.4 4.7 52 4.5 WSW 15 24 8 13 - - 0.0
25/12:30pm 12.9 7.9 3.8 54 4.1 SW 19 26 10 14 - - 0.0
25/12:00pm 12.0 6.5 4.2 59 3.5 WSW 22 28 12 15 - - 0.0
25/11:30am 12.4 7.2 3.6 55 3.9 SW 20 28 11 15 - - 0.0
25/11:00am 12.2 6.7 4.2 58 3.6 SW 22 30 12 16 - - 0.0
25/10:30am 11.4 7.8 5.1 65 2.9 WSW 13 22 7 12 - - 0.0
25/10:00am 10.1 7.0 5.5 73 2.1 SW 11 17 6 9 - - 0.0
25/09:30am 8.0 5.7 5.6 85 1.1 SW 7 11 4 6 - - 0.0
25/09:00am 5.6 3.3 4.6 93 0.4 WSW 6 9 3 5 - - 0.0
25/08:30am 4.8 2.4 4.2 96 0.3 SW 6 7 3 4 - - 0.0
25/08:00am 2.6 -0.2 2.0 96 0.2 SSW 6 9 3 5 - - 0.0
25/07:30am 1.3 -1.4 0.6 95 0.3 SW 4 6 2 3 - - 0.0
25/07:00am 0.9 -1.8 0.0 94 0.3 SW 4 6 2 3 - - 0.0
25/06:30am 1.0 -1.7 0.1 94 0.3 WSW 4 6 2 3 - - 0.0
25/06:00am 1.2 -1.1 0.3 94 0.3 WSW 2 4 1 2 - - 0.0
25/05:30am 1.2 -1.5 0.2 93 0.4 SW 4 6 2 3 - - 0.0
25/05:00am 1.5 -1.2 0.5 93 0.4 WSW 4 6 2 3 - - 0.0
25/04:30am 1.5 -1.2 0.3 92 0.4 WSW 4 4 2 2 - - 0.0
25/04:00am 1.3 -1.1 0.0 91 0.5 W 2 4 1 2 - - 0.0
25/03:30am 1.5 -1.2 0.2 91 0.5 SW 4 6 2 3 - - 0.0
25/03:00am 1.5 -1.6 0.0 90 0.6 SSW 6 7 3 4 - - 0.0
25/02:30am 1.8 -1.3 0.0 88 0.7 SSW 6 6 3 3 - - 0.0
25/02:00am 2.3 -1.0 0.4 87 0.7 S 7 9 4 5 - - 0.0
25/01:30am 2.7 -0.6 0.4 85 0.9 S 7 11 4 6 - - 0.0
25/01:00am 3.6 -1.1 1.2 84 0.9 S 15 19 8 10 - - 0.0
25/12:30am 3.2 -1.1 0.9 85 0.9 S 13 17 7 9 - - 0.0
25/12:00am 3.2 -0.8 0.8 84 0.9 SSW 11 15 6 8 - - 0.0
 
Date/Time
EST
Temp
°C
App
Temp
°C
Dew
Point
°C
Rel
Hum
%
Delta-T
°C
Wind Press
QNH
hPa
Press
MSL
hPa
Rain since
9am
mm
Dir  Spd
km/h
Gust
km/h
Spd
kts
Gust
kts
24/11:30pm 3.1 -0.2 0.2 81 1.1 SSW 7 9 4 5 - - 0.0
24/11:00pm 3.7 0.6 0.4 79 1.3 SSW 6 7 3 4 - - 0.0
24/10:30pm 3.9 0.9 0.8 80 1.2 SSW 6 7 3 4 - - 0.0
24/10:00pm 4.4 0.9 1.3 80 1.2 SSW 9 9 5 5 - - 0.0
24/09:30pm 5.1 2.2 1.6 78 1.4 SSW 6 9 3 5 - - 0.0
24/09:00pm 5.5 2.5 1.8 77 1.5 SSW 7 9 4 5 - - 0.0
24/08:30pm 6.5 3.6 2.4 75 1.7 SSW 7 11 4 6 - - 0.0

Other Formats:

Comma delimited format used in spreadsheet applications
http://www.bom.gov.au/fwo/IDV60801/IDV60801.95831.axf

JavaScript Object Notation format (JSON) in row-major order
http://www.bom.gov.au/fwo/IDV60801/IDV60801.95831.json